Aérodrome :







RETROUVEZ-NOUS SUR...

 
LOGIN :

S'inscrire | Disclaimer

   EN    FR    IT 

 









Légende :    VFR   VFR Marginal   IFR   IFR Intensif   IFR Très Intensif
Visi : 
Plafond : 
>= 8 km
>= 3000ft
5 à 8 km
1000 à 3000 ft
1500m à 5 km
500 à 1000 ft
800 à 1500m
200 à 500 ft
< 800m
< 200 ft
Symboles :   Orages  Brouillard  Fortes neiges  Fortes précipitations  Vent > 20 kt






- Altitude de l'aérodrome : 352 ft


KAUG - Augusta State

DERNIER METAR :
  • 231953Z AUTO VRB06KT 10SM CLR 07/M06 A3003 RMK AO2 SLP171 T00671056

METARs EXPIRÉS :
  • 231853Z AUTO VRB05KT 10SM CLR 07/M06 A3003 RMK AO2 SLP172 T00671056
  • 231753Z AUTO 17006KT 10SM CLR 06/M06 A3005 RMK AO2 SLP179 T00561056 10061 21056 58020

TAF KAUG
Valide du 23 à 18h jusqu'au 24 à 18h UTC


231731Z 2318/2418 24004KT P6SM FEW250



MET'MAP, la Météo Aéronautique d'un coup d'oeil ! - Copyright ORBIFLY Décembre 2007 - Disclaimer

ORBIFLY MET'MAP TEAM :

Programmation & Développement : Alexandra Zaïnal
Sur une idée originale de : Baudouin d'Aumeries
Assistance à la programmation : Marc-Olivier Méhu
Soutien technique & logistique : Manuel Goepfert

Contact : metmap@orbifly.com




SOURCES & CREDITS :

   NOAA